createdAt,value
2023-03-12T00:01:43.031Z,50.90
2023-03-12T00:04:09.763Z,50.90
2023-03-12T00:06:37.241Z,50.90
2023-03-12T00:09:04.756Z,50.80
2023-03-12T00:11:31.817Z,51.00
2023-03-12T00:14:00.189Z,51.00
2023-03-12T00:16:27.934Z,51.10
2023-03-12T00:18:55.921Z,51.00
2023-03-12T00:21:23.180Z,51.00
2023-03-12T00:23:50.341Z,51.10
2023-03-12T00:26:17.947Z,51.00
2023-03-12T00:28:45.289Z,51.00
2023-03-12T00:31:23.721Z,51.30
2023-03-12T00:33:50.657Z,51.10
2023-03-12T00:36:19.312Z,51.10
2023-03-12T00:38:46.191Z,51.20
2023-03-12T00:41:13.162Z,51.20
2023-03-12T00:43:39.899Z,51.20
2023-03-12T00:46:06.625Z,51.30
2023-03-12T00:48:33.789Z,51.60
2023-03-12T00:51:00.581Z,51.40
2023-03-12T00:53:27.332Z,51.40
2023-03-12T00:55:54.163Z,51.60
2023-03-12T00:58:20.939Z,51.40
2023-03-12T01:00:47.857Z,51.30
2023-03-12T01:03:16.484Z,51.40
2023-03-12T01:05:43.255Z,51.50
2023-03-12T01:08:11.352Z,51.30
2023-03-12T01:10:42.189Z,51.60
2023-03-12T01:13:09.352Z,51.40
2023-03-12T01:15:36.462Z,51.50
2023-03-12T01:18:03.223Z,51.40
2023-03-12T01:20:30.265Z,51.70
2023-03-12T01:22:56.995Z,51.70
2023-03-12T01:25:23.723Z,51.50
2023-03-12T01:27:50.573Z,51.50
2023-03-12T01:30:17.488Z,51.50
2023-03-12T01:32:44.270Z,51.60
2023-03-12T01:35:11.150Z,51.80
2023-03-12T01:37:37.982Z,51.70
2023-03-12T01:40:05.200Z,51.70
2023-03-12T01:42:31.957Z,51.70
2023-03-12T01:45:03.573Z,51.60
2023-03-12T01:47:32.313Z,51.80
2023-03-12T01:50:01.319Z,52.00
2023-03-12T01:52:31.769Z,51.80
2023-03-12T01:55:10.764Z,52.00
2023-03-12T01:57:51.005Z,51.80
2023-03-12T02:00:22.974Z,51.70
2023-03-12T02:02:51.619Z,52.10
2023-03-12T02:05:27.419Z,51.90
2023-03-12T02:07:54.900Z,52.00
2023-03-12T02:10:22.338Z,51.90
2023-03-12T02:12:49.147Z,51.90
2023-03-12T02:15:16.000Z,51.90
2023-03-12T02:17:42.816Z,52.30
2023-03-12T02:20:35.746Z,52.20
2023-03-12T02:23:31.651Z,52.10
2023-03-12T02:26:00.456Z,52.20
2023-03-12T02:28:29.267Z,52.30
2023-03-12T02:31:03.517Z,52.10
2023-03-12T02:33:31.410Z,52.20
2023-03-12T02:35:58.244Z,52.20
2023-03-12T02:38:45.856Z,52.30
2023-03-12T02:41:24.442Z,52.40
2023-03-12T02:44:08.449Z,52.30
2023-03-12T02:46:40.765Z,52.40
2023-03-12T02:49:08.862Z,52.20
2023-03-12T02:51:35.610Z,52.30
2023-03-12T02:54:02.492Z,52.40
2023-03-12T02:56:29.325Z,52.50
2023-03-12T02:58:56.154Z,52.30
2023-03-12T03:01:24.329Z,52.40
2023-03-12T03:03:51.176Z,52.20
2023-03-12T03:06:18.500Z,52.20
2023-03-12T03:08:45.361Z,52.10
2023-03-12T03:11:12.604Z,52.20
2023-03-12T03:13:40.191Z,52.30
2023-03-12T03:16:07.463Z,52.30
2023-03-12T03:18:34.251Z,52.10
2023-03-12T03:21:06.895Z,52.30
2023-03-12T03:23:34.434Z,52.30
2023-03-12T03:26:01.538Z,52.40
2023-03-12T03:28:29.887Z,52.30
2023-03-12T03:31:00.725Z,52.30
2023-03-12T03:33:30.632Z,52.30
2023-03-12T03:35:59.510Z,52.30
2023-03-12T03:38:29.799Z,52.30
2023-03-12T03:40:56.849Z,52.40
2023-03-12T03:43:23.636Z,52.30
2023-03-12T03:45:58.167Z,52.50
2023-03-12T03:48:25.373Z,52.70
2023-03-12T03:50:52.304Z,52.50
2023-03-12T03:53:19.985Z,52.90
2023-03-12T03:55:47.657Z,52.70
2023-03-12T03:58:15.192Z,52.80
2023-03-12T04:00:45.496Z,52.60
2023-03-12T04:03:13.935Z,52.70
2023-03-12T04:05:45.104Z,52.50
2023-03-12T04:08:13.524Z,52.50
2023-03-12T04:10:41.005Z,52.60
2023-03-12T04:13:07.809Z,52.50
2023-03-12T04:15:34.786Z,52.70
2023-03-12T04:18:07.022Z,52.50
2023-03-12T04:20:33.830Z,52.50
2023-03-12T04:23:01.201Z,52.40
2023-03-12T04:25:28.027Z,52.50
2023-03-12T04:27:54.810Z,52.50
2023-03-12T04:30:21.715Z,52.50
2023-03-12T04:32:48.910Z,52.70
2023-03-12T04:35:16.032Z,52.70
2023-03-12T04:37:42.823Z,52.70
2023-03-12T04:40:11.559Z,52.60
2023-03-12T04:42:38.398Z,52.60
2023-03-12T04:45:06.783Z,52.60
2023-03-12T04:47:36.042Z,52.80
2023-03-12T04:50:03.454Z,52.80
2023-03-12T04:52:31.214Z,52.70
2023-03-12T04:54:59.665Z,53.10
2023-03-12T04:57:26.898Z,52.90
2023-03-12T04:59:53.897Z,53.10
2023-03-12T05:02:20.707Z,53.00
2023-03-12T05:04:47.508Z,52.90
2023-03-12T05:07:14.228Z,52.80
2023-03-12T05:09:41.354Z,52.80
2023-03-12T05:12:08.455Z,52.70
2023-03-12T05:14:35.182Z,52.80
2023-03-12T05:17:02.073Z,52.80
2023-03-12T05:19:28.800Z,53.40
2023-03-12T05:21:55.577Z,52.80
2023-03-12T05:24:22.742Z,52.80
2023-03-12T05:26:49.457Z,52.90
2023-03-12T05:29:19.679Z,52.80
2023-03-12T05:31:46.511Z,52.80
2023-03-12T05:34:14.307Z,52.90
2023-03-12T05:36:43.412Z,52.90
2023-03-12T05:39:11.458Z,52.90
2023-03-12T05:41:39.681Z,52.80
2023-03-12T05:44:13.623Z,52.80
2023-03-12T05:46:42.053Z,52.90
2023-03-12T05:49:09.443Z,52.90
2023-03-12T05:51:36.744Z,53.00
2023-03-12T05:54:03.834Z,53.00
2023-03-12T05:56:30.631Z,53.00
2023-03-12T05:58:57.467Z,52.90
2023-03-12T06:01:27.331Z,52.90
2023-03-12T06:03:56.512Z,53.20
2023-03-12T06:06:25.180Z,53.00
2023-03-12T06:08:52.373Z,53.10
2023-03-12T06:11:19.323Z,53.10
2023-03-12T06:13:46.056Z,53.00
2023-03-12T06:16:18.008Z,53.00
2023-03-12T06:18:45.270Z,53.20
2023-03-12T06:21:18.242Z,53.20
2023-03-12T06:23:46.236Z,53.20
2023-03-12T06:26:19.631Z,53.20
2023-03-12T06:28:47.156Z,53.20
2023-03-12T06:31:14.344Z,53.20
2023-03-12T06:33:41.159Z,53.20
2023-03-12T06:36:09.269Z,53.20
2023-03-12T06:38:36.526Z,53.30
2023-03-12T06:41:05.920Z,53.30
2023-03-12T06:43:33.786Z,53.40
2023-03-12T06:46:01.292Z,53.40
2023-03-12T06:48:29.587Z,53.50
2023-03-12T06:50:56.652Z,53.40
2023-03-12T06:53:25.265Z,53.60
2023-03-12T06:55:52.035Z,53.50
2023-03-12T06:58:18.941Z,53.60
2023-03-12T07:00:45.792Z,53.60
2023-03-12T07:03:12.519Z,54.30
2023-03-12T07:05:39.412Z,53.70
2023-03-12T07:08:06.431Z,53.80
2023-03-12T07:10:33.139Z,53.90
2023-03-12T07:12:59.858Z,54.00
2023-03-12T07:15:26.689Z,54.20
2023-03-12T07:17:53.448Z,55.00
2023-03-12T07:20:20.713Z,54.90
2023-03-12T07:22:47.515Z,54.90
2023-03-12T07:25:14.239Z,55.00
2023-03-12T07:27:40.968Z,55.10
2023-03-12T07:30:08.377Z,55.10
2023-03-12T07:32:36.717Z,55.20
2023-03-12T07:35:05.031Z,55.20
2023-03-12T07:37:31.780Z,55.20
2023-03-12T07:39:58.790Z,55.20
2023-03-12T07:42:25.687Z,55.30
2023-03-12T07:44:56.006Z,55.30
2023-03-12T07:47:24.528Z,55.30
2023-03-12T07:49:52.086Z,55.40
2023-03-12T07:52:20.181Z,55.40
2023-03-12T07:54:47.888Z,55.40
2023-03-12T07:57:14.987Z,55.50
2023-03-12T07:59:41.793Z,55.50
2023-03-12T08:02:10.817Z,55.50
2023-03-12T08:04:37.724Z,55.50
2023-03-12T08:07:05.837Z,55.50
2023-03-12T08:09:34.788Z,55.70
2023-03-12T08:12:01.604Z,55.90
2023-03-12T08:14:31.661Z,55.80
2023-03-12T08:16:59.181Z,56.00
2023-03-12T08:19:27.061Z,56.00
2023-03-12T08:21:54.088Z,56.20
2023-03-12T08:24:21.867Z,56.20
2023-03-12T08:26:48.593Z,56.40
2023-03-12T08:29:15.895Z,56.30
2023-03-12T08:31:57.380Z,56.40
2023-03-12T08:34:28.605Z,56.70
2023-03-12T08:36:56.121Z,56.70
2023-03-12T08:39:22.885Z,56.70
2023-03-12T08:41:49.640Z,57.00
2023-03-12T08:44:16.347Z,57.00
2023-03-12T08:46:43.064Z,57.00
2023-03-12T08:49:09.855Z,57.10
2023-03-12T08:51:36.560Z,57.30
2023-03-12T08:54:03.271Z,57.30
2023-03-12T08:56:30.035Z,57.80
2023-03-12T08:58:58.495Z,58.10
2023-03-12T09:01:25.220Z,58.30
2023-03-12T09:03:55.095Z,58.30
2023-03-12T09:06:21.872Z,58.40
2023-03-12T09:08:49.268Z,59.00
2023-03-12T09:11:16.004Z,59.70
2023-03-12T09:14:03.880Z,59.70
2023-03-12T09:16:29.925Z,59.40
2023-03-12T09:18:56.659Z,59.50
2023-03-12T09:21:23.411Z,59.60
2023-03-12T09:23:50.172Z,59.70
2023-03-12T09:26:16.920Z,59.70
2023-03-12T09:28:44.904Z,59.50
2023-03-12T09:31:12.620Z,59.60
2023-03-12T09:33:39.368Z,59.70
2023-03-12T09:36:06.496Z,59.80
2023-03-12T09:38:35.375Z,59.80
2023-03-12T09:41:05.274Z,59.80
2023-03-12T09:43:41.788Z,60.00
2023-03-12T09:46:15.480Z,60.30
2023-03-12T09:48:42.440Z,60.30
2023-03-12T09:51:14.278Z,60.40
2023-03-12T09:53:47.080Z,60.50
2023-03-12T09:56:17.547Z,60.40
2023-03-12T09:58:48.203Z,60.70
2023-03-12T10:01:34.993Z,60.90
2023-03-12T10:04:34.640Z,61.10
2023-03-12T10:07:18.505Z,61.20
2023-03-12T10:09:54.276Z,61.20
2023-03-12T10:12:34.110Z,61.30
2023-03-12T10:15:34.183Z,61.50
2023-03-12T10:18:42.824Z,61.80
2023-03-12T10:21:15.464Z,61.80
2023-03-12T10:24:20.384Z,61.70
2023-03-12T10:26:50.612Z,62.00
2023-03-12T10:29:27.149Z,61.90
2023-03-12T10:32:17.381Z,61.90
2023-03-12T10:34:50.444Z,61.90
2023-03-12T10:37:18.939Z,61.90
2023-03-12T10:39:46.262Z,61.90
2023-03-12T10:42:16.418Z,61.80
2023-03-12T10:44:43.301Z,62.00
2023-03-12T10:47:45.594Z,62.00
2023-03-12T10:50:27.630Z,62.30
2023-03-12T10:53:13.821Z,62.20
2023-03-12T10:55:40.742Z,62.30
2023-03-12T10:58:10.002Z,62.30
2023-03-12T11:00:36.818Z,62.40
2023-03-12T11:03:05.838Z,62.40
2023-03-12T11:05:36.456Z,62.60
2023-03-12T11:08:04.550Z,62.50
2023-03-12T11:10:44.563Z,62.30
2023-03-12T11:13:35.858Z,62.60
2023-03-12T11:16:32.210Z,62.70
2023-03-12T11:19:01.512Z,62.30
2023-03-12T11:21:29.223Z,62.50
2023-03-12T11:23:58.967Z,62.70
2023-03-12T11:26:31.694Z,62.70
2023-03-12T11:29:19.631Z,62.40
2023-03-12T11:31:55.678Z,62.90
2023-03-12T11:34:29.000Z,63.10
2023-03-12T11:37:11.537Z,63.20
2023-03-12T11:40:10.041Z,63.40
2023-03-12T11:42:51.936Z,63.90
2023-03-12T11:45:56.561Z,63.80
2023-03-12T11:48:42.207Z,64.50
2023-03-12T11:51:17.900Z,64.20
2023-03-12T11:54:03.509Z,64.10
2023-03-12T11:56:37.676Z,64.20
2023-03-12T11:59:30.243Z,64.20
2023-03-12T12:02:22.205Z,63.80
2023-03-12T12:05:10.702Z,63.70
2023-03-12T12:07:55.696Z,63.60
2023-03-12T12:10:36.487Z,63.50
2023-03-12T12:13:03.255Z,63.70
2023-03-12T12:15:55.717Z,63.70
2023-03-12T12:18:50.381Z,63.60
2023-03-12T12:21:44.819Z,63.60
2023-03-12T12:24:31.136Z,63.50
2023-03-12T12:27:06.806Z,63.40
2023-03-12T12:29:43.301Z,63.90
2023-03-12T12:32:16.749Z,63.90
2023-03-12T12:35:02.641Z,63.90
2023-03-12T12:37:46.768Z,63.50
2023-03-12T12:40:31.444Z,63.60
2023-03-12T12:43:09.206Z,63.10
2023-03-12T12:45:38.765Z,65.70
2023-03-12T12:48:11.732Z,66.90
2023-03-12T12:50:39.958Z,66.80
2023-03-12T12:53:21.387Z,66.40
2023-03-12T12:55:55.823Z,65.50
2023-03-12T12:58:43.958Z,64.90
2023-03-12T13:01:11.045Z,64.20
2023-03-12T13:03:38.280Z,63.70
2023-03-12T13:06:06.531Z,63.40
2023-03-12T13:08:39.132Z,62.90
2023-03-12T13:11:19.296Z,62.70
2023-03-12T13:13:50.362Z,62.50
2023-03-12T13:16:58.776Z,62.20
2023-03-12T13:19:27.026Z,61.90
2023-03-12T13:22:12.906Z,61.80
2023-03-12T13:24:39.545Z,61.60
2023-03-12T13:27:30.386Z,61.70
2023-03-12T13:29:57.432Z,61.70
2023-03-12T13:32:37.832Z,61.60
2023-03-12T13:35:29.028Z,61.50
2023-03-12T13:37:55.966Z,61.40
2023-03-12T13:40:28.800Z,61.40
2023-03-12T13:43:05.402Z,61.40
2023-03-12T13:45:32.239Z,61.50
2023-03-12T13:48:01.824Z,61.60
2023-03-12T13:50:28.854Z,61.70
2023-03-12T13:53:02.763Z,61.90
2023-03-12T13:55:30.868Z,62.10
2023-03-12T13:58:00.448Z,62.40
2023-03-12T14:00:31.214Z,62.40
2023-03-12T14:02:57.880Z,62.50
2023-03-12T14:05:24.569Z,62.50
2023-03-12T14:07:55.930Z,62.40
2023-03-12T14:10:37.904Z,62.50
2023-03-12T14:13:07.659Z,62.70
2023-03-12T14:15:39.464Z,62.70
2023-03-12T14:18:12.662Z,62.60
2023-03-12T14:20:41.564Z,62.50
2023-03-12T14:23:09.323Z,62.30
2023-03-12T14:25:36.553Z,62.10
2023-03-12T14:28:03.829Z,61.90
2023-03-12T14:30:40.632Z,61.80
2023-03-12T14:33:07.280Z,61.70
2023-03-12T14:35:37.585Z,61.60
2023-03-12T14:38:11.097Z,61.40
2023-03-12T14:40:46.227Z,61.40
2023-03-12T14:43:23.231Z,62.00
2023-03-12T14:45:50.844Z,61.40
2023-03-12T14:48:20.869Z,61.30
2023-03-12T14:50:48.736Z,61.30
2023-03-12T14:53:18.622Z,61.20
2023-03-12T14:55:45.262Z,61.10
2023-03-12T14:58:19.016Z,61.00
2023-03-12T15:00:48.567Z,60.90
2023-03-12T15:03:15.687Z,60.70
2023-03-12T15:05:46.565Z,60.70
2023-03-12T15:08:13.191Z,60.50
2023-03-12T15:10:41.336Z,60.40
2023-03-12T15:13:09.758Z,60.20
2023-03-12T15:15:37.356Z,60.10
2023-03-12T15:18:07.939Z,60.00
2023-03-12T15:20:35.194Z,59.80
2023-03-12T15:23:04.107Z,59.70
2023-03-12T15:25:31.978Z,59.60
2023-03-12T15:28:01.726Z,59.60
2023-03-12T15:30:28.800Z,59.60
2023-03-12T15:33:05.827Z,59.60
2023-03-12T15:35:32.885Z,58.60
2023-03-12T15:37:59.745Z,59.60
2023-03-12T15:40:27.432Z,59.70
2023-03-12T15:43:00.826Z,59.40
2023-03-12T15:45:39.684Z,59.50
2023-03-12T15:48:15.211Z,59.40
2023-03-12T15:50:42.326Z,59.30
2023-03-12T15:53:12.057Z,59.30
2023-03-12T15:55:39.288Z,59.10
2023-03-12T15:58:25.914Z,59.00
2023-03-12T16:00:52.817Z,59.00
2023-03-12T16:03:20.413Z,58.80
2023-03-12T16:05:47.354Z,58.90
2023-03-12T16:08:15.853Z,58.80
2023-03-12T16:10:42.499Z,58.80
2023-03-12T16:13:09.528Z,58.70
2023-03-12T16:15:38.105Z,58.70
2023-03-12T16:18:04.918Z,58.80
2023-03-12T16:20:31.586Z,58.70
2023-03-12T16:22:59.125Z,58.70
2023-03-12T16:25:26.117Z,58.70
2023-03-12T16:27:53.479Z,58.60
2023-03-12T16:30:30.409Z,58.70
2023-03-12T16:32:58.338Z,58.70
2023-03-12T16:35:25.263Z,58.70
2023-03-12T16:37:52.245Z,58.70
2023-03-12T16:40:32.471Z,58.80
2023-03-12T16:43:03.670Z,58.80
2023-03-12T16:45:34.130Z,58.80
2023-03-12T16:48:02.784Z,58.80
2023-03-12T16:50:29.478Z,58.80
2023-03-12T16:52:56.558Z,58.80
2023-03-12T16:55:25.835Z,58.80
2023-03-12T16:57:53.458Z,58.80
2023-03-12T17:00:23.929Z,58.80
2023-03-12T17:02:52.513Z,58.90
2023-03-12T17:05:19.146Z,58.80
2023-03-12T17:07:45.780Z,58.80
2023-03-12T17:10:12.908Z,58.90
2023-03-12T17:12:39.869Z,58.90
2023-03-12T17:15:19.853Z,58.90
2023-03-12T17:17:46.881Z,58.90
2023-03-12T17:20:14.661Z,59.00
2023-03-12T17:22:41.475Z,58.90
2023-03-12T17:25:08.429Z,58.80
2023-03-12T17:27:35.091Z,59.00
2023-03-12T17:30:01.739Z,59.00
2023-03-12T17:32:29.987Z,59.00
2023-03-12T17:34:57.648Z,59.20
2023-03-12T17:37:24.305Z,59.10
2023-03-12T17:39:50.952Z,59.10
2023-03-12T17:42:17.678Z,59.10
2023-03-12T17:44:44.313Z,59.00
2023-03-12T17:47:10.941Z,59.00
2023-03-12T17:49:37.628Z,59.10
2023-03-12T17:52:04.384Z,59.10
2023-03-12T17:54:31.028Z,59.10
2023-03-12T17:56:57.680Z,59.10
2023-03-12T17:59:24.310Z,59.20
2023-03-12T18:01:51.107Z,59.20
2023-03-12T18:04:17.831Z,59.20
2023-03-12T18:06:44.587Z,59.30
2023-03-12T18:09:11.245Z,59.30
2023-03-12T18:11:38.726Z,59.40
2023-03-12T18:14:05.353Z,59.40
2023-03-12T18:16:32.026Z,59.40
2023-03-12T18:18:58.699Z,59.50
2023-03-12T18:21:25.358Z,59.50
2023-03-12T18:23:53.211Z,60.20
2023-03-12T18:26:19.932Z,59.60
2023-03-12T18:28:46.693Z,59.70
2023-03-12T18:31:13.377Z,59.80
2023-03-12T18:33:41.774Z,59.80
2023-03-12T18:36:08.610Z,59.90
2023-03-12T18:38:35.386Z,59.90
2023-03-12T18:41:08.993Z,60.00
2023-03-12T18:43:35.939Z,60.20
2023-03-12T18:46:02.878Z,60.20
2023-03-12T18:48:29.529Z,60.20
2023-03-12T18:50:56.334Z,60.20
2023-03-12T18:53:23.149Z,60.70
2023-03-12T18:55:50.666Z,60.40
2023-03-12T18:58:17.423Z,60.40
2023-03-12T19:00:44.051Z,60.50
2023-03-12T19:03:10.726Z,60.50
2023-03-12T19:05:37.464Z,60.50
2023-03-12T19:08:04.351Z,60.60
2023-03-12T19:10:30.978Z,60.70
2023-03-12T19:12:58.970Z,60.70
2023-03-12T19:15:25.843Z,60.70
2023-03-12T19:17:53.912Z,60.80
2023-03-12T19:20:21.469Z,60.70
2023-03-12T19:22:48.215Z,60.90
2023-03-12T19:25:15.712Z,60.80
2023-03-12T19:27:42.491Z,60.80
2023-03-12T19:30:09.355Z,60.80
2023-03-12T19:32:43.401Z,60.80
2023-03-12T19:35:11.490Z,60.90
2023-03-12T19:37:38.334Z,60.90
2023-03-12T19:40:08.105Z,61.50
2023-03-12T19:42:34.879Z,60.90
2023-03-12T19:45:01.533Z,61.00
2023-03-12T19:47:28.259Z,60.90
2023-03-12T19:49:54.920Z,61.00
2023-03-12T19:52:21.580Z,61.10
2023-03-12T19:55:01.515Z,61.00
2023-03-12T19:57:31.703Z,61.20
2023-03-12T19:59:58.374Z,61.10
2023-03-12T20:02:26.016Z,61.20
2023-03-12T20:04:52.770Z,61.10
2023-03-12T20:07:19.419Z,61.20
2023-03-12T20:09:46.048Z,61.10
2023-03-12T20:12:12.782Z,61.10
2023-03-12T20:14:42.056Z,61.10
2023-03-12T20:17:09.262Z,61.10
2023-03-12T20:19:36.084Z,61.10
2023-03-12T20:22:02.750Z,61.10
2023-03-12T20:24:29.376Z,61.30
2023-03-12T20:26:56.225Z,61.30
2023-03-12T20:29:22.898Z,61.30
2023-03-12T20:31:49.916Z,61.30
2023-03-12T20:34:16.578Z,61.30
2023-03-12T20:36:43.252Z,61.70
2023-03-12T20:39:09.919Z,61.40
2023-03-12T20:41:36.608Z,62.00
2023-03-12T20:44:03.286Z,61.80
2023-03-12T20:46:29.915Z,61.90
2023-03-12T20:48:56.884Z,61.60
2023-03-12T20:51:24.836Z,61.70
2023-03-12T20:53:51.493Z,61.50
2023-03-12T20:56:18.220Z,61.50
2023-03-12T20:58:44.915Z,61.50
2023-03-12T21:01:11.564Z,61.40
2023-03-12T21:03:38.248Z,61.50
2023-03-12T21:06:05.111Z,61.30
2023-03-12T21:08:32.856Z,61.80
2023-03-12T21:10:59.577Z,61.50
2023-03-12T21:13:26.648Z,61.70
2023-03-12T21:15:53.297Z,61.70
2023-03-12T21:18:19.980Z,61.60
2023-03-12T21:20:46.852Z,61.70
2023-03-12T21:23:13.680Z,61.90
2023-03-12T21:25:40.514Z,62.00
2023-03-12T21:28:07.728Z,61.90
2023-03-12T21:30:34.447Z,62.60
2023-03-12T21:33:01.359Z,61.90
2023-03-12T21:35:28.262Z,61.90
2023-03-12T21:37:56.205Z,61.80
2023-03-12T21:40:23.463Z,61.90
2023-03-12T21:42:50.553Z,61.90
2023-03-12T21:45:17.356Z,61.90
2023-03-12T21:47:44.040Z,61.90
2023-03-12T21:50:11.069Z,61.90
2023-03-12T21:52:43.000Z,61.90
2023-03-12T21:55:10.448Z,61.90
2023-03-12T21:57:37.173Z,62.00
2023-03-12T22:00:04.633Z,61.90
2023-03-12T22:02:31.687Z,62.00
2023-03-12T22:04:58.836Z,62.10
2023-03-12T22:07:25.514Z,62.00
2023-03-12T22:09:52.133Z,62.00
2023-03-12T22:12:18.775Z,62.00
2023-03-12T22:14:45.693Z,62.10
2023-03-12T22:17:12.314Z,62.10
2023-03-12T22:19:41.592Z,62.30
2023-03-12T22:22:08.843Z,62.20
2023-03-12T22:24:35.548Z,62.20
2023-03-12T22:27:03.370Z,62.20
2023-03-12T22:29:30.055Z,62.30
2023-03-12T22:31:56.684Z,62.30
2023-03-12T22:34:23.337Z,62.30
2023-03-12T22:36:50.079Z,62.30
2023-03-12T22:39:17.311Z,62.30
2023-03-12T22:41:44.039Z,62.50
2023-03-12T22:44:10.751Z,62.40
2023-03-12T22:46:37.512Z,62.50
2023-03-12T22:49:04.842Z,62.40
2023-03-12T22:51:31.863Z,62.40
2023-03-12T22:53:58.598Z,62.60
2023-03-12T22:56:25.400Z,62.50
2023-03-12T22:58:52.096Z,62.60
2023-03-12T23:01:19.393Z,62.60
2023-03-12T23:03:46.287Z,62.70
2023-03-12T23:06:13.802Z,62.80
2023-03-12T23:08:40.542Z,62.90
2023-03-12T23:11:07.654Z,63.00
2023-03-12T23:13:35.658Z,63.00
2023-03-12T23:16:03.232Z,63.10
2023-03-12T23:18:29.912Z,63.30
2023-03-12T23:21:00.225Z,63.40
2023-03-12T23:23:27.069Z,63.50
2023-03-12T23:25:57.498Z,63.60
2023-03-12T23:28:24.324Z,63.70
2023-03-12T23:30:57.838Z,63.80
2023-03-12T23:33:24.825Z,63.90
2023-03-12T23:35:58.764Z,63.90
2023-03-12T23:38:25.901Z,64.00
2023-03-12T23:40:52.743Z,64.00
2023-03-12T23:43:19.610Z,64.00
2023-03-12T23:45:46.305Z,64.10
2023-03-12T23:48:13.048Z,64.10
2023-03-12T23:50:41.172Z,64.20
2023-03-12T23:53:07.838Z,64.20
2023-03-12T23:55:34.520Z,64.30
2023-03-12T23:58:01.216Z,64.20
